Archival Weather

Fukuoka

Fukuoka, Japan (RJFF)

Report from: Monday, August 15, 2022 3:30 AM JST
Current time: Sunday, February 25, 2024 12:09 AM JST

Current weather – Weather history – Daily summaries
Weather forecast

Temperature28.0°C (82.4°F)
Heat index33.5°C (92.3°F)
Dew point26.0°C (78.8°F)
Winds 9 kts (4.6 m/s, 10.4 mph) South-Southeast (150°)
Visibility6.2 mi. (10 km)
Clouds Few clouds 3,600 ft. (1,097 m)
Scattered clouds 4,200 ft. (1,280 m)
Altimeter29.77 in.Hg (1008 mB)
Relative humidity89 %
Density altitude2,120 ft. (646 m)
Remarks Fully automated report
No significant changes expected in the next two hours
Flight conditions Visual Meteorological Conditions
Raw dataRJFF 141830Z AUTO 15009KT 9999 FEW036 SCT042 28/26 Q1008 NOSIG
An error has occurred. This application may no longer respond until reloaded. Reload 🗙